Time;durP1;ratioP1;P1;durP2;ratioP2;P2;SDS_P1;SDS_P2;PMS_P1;PMS_P2;Temp;Humidity;BMP_temperature;BMP_pressure;BME280_temperature;BME280_humidity;BME280_pressure;Samples;Min_cycle;Max_cycle;Signal;HPM_P1;HPM_P2
2023/10/13 00:01:15;;;;;;;;;20.00;19.00;;;;;;;;6485471;39;8907;-54
2023/10/13 00:07:18;;;;;;;;;22.67;20.33;;;;;;;;6531753;36;9001;-53
2023/10/13 00:13:21;;;;;;;;;17.67;16.33;;;;;;;;6489476;39;8867;-54
2023/10/13 00:19:24;;;;;;;;;18.67;17.33;;;;;;;;6488563;46;8852;-53
2023/10/13 00:25:27;;;;;;;;;20.33;18.00;;;;;;;;6488551;31;9715;-52
2023/10/13 00:31:33;;;;;;;;;20.00;18.50;;;;;;;;6488034;39;8926;-53
2023/10/13 00:37:42;;;;;;;;;18.67;16.00;;;;;;;;6488166;46;8890;-54
2023/10/13 00:44:03;;;;;;;;;17.00;17.00;;;;;;;;6488470;39;8958;-54
2023/10/13 00:50:11;;;;;;;;;19.00;18.00;;;;;;;;6487447;31;9003;-56
2023/10/13 00:56:27;;;;;;;;;18.33;18.33;;;;;;;;6488603;46;8939;-54
2023/10/13 01:02:38;;;;;;;;;19.67;19.67;;;;;;;;6487206;39;8894;-54
2023/10/13 01:08:44;;;;;;;;;20.33;20.33;;;;;;;;6488981;39;8883;-55
2023/10/13 01:14:46;;;;;;;;;21.00;18.33;;;;;;;;6488466;39;9026;-55
2023/10/13 01:20:57;;;;;;;;;20.00;17.00;;;;;;;;6487539;31;8928;-55
2023/10/13 01:27:20;;;;;;;;;23.00;17.00;;;;;;;;6307188;36;10001297;-52
2023/10/13 01:33:27;;;;;;;;;18.33;16.67;;;;;;;;6487770;31;9660;-54
2023/10/13 01:39:29;;;;;;;;;16.33;15.00;;;;;;;;6487385;46;8990;-55
2023/10/13 01:45:32;;;;;;;;;25.75;21.00;;;;;;;;6487181;46;10090;-55
2023/10/13 01:51:34;;;;;;;;;26.25;24.00;;;;;;;;6487357;46;8945;-56
2023/10/13 01:57:42;;;;;;;;;20.33;20.33;;;;;;;;6487813;39;8953;-56
2023/10/13 02:03:49;;;;;;;;;22.67;19.33;;;;;;;;6486690;39;8830;-56
2023/10/13 02:09:52;;;;;;;;;25.67;23.00;;;;;;;;6487536;46;8945;-55
2023/10/13 02:16:01;;;;;;;;;25.00;21.67;;;;;;;;6488931;39;8864;-55
2023/10/13 02:22:09;;;;;;;;;25.25;25.00;;;;;;;;6488995;31;8943;-54
2023/10/13 02:28:21;;;;;;;;;28.50;24.25;;;;;;;;6487173;31;9065;-56
2023/10/13 02:34:23;;;;;;;;;26.25;25.00;;;;;;;;6487518;31;8915;-52
2023/10/13 02:40:27;;;;;;;;;27.25;24.50;;;;;;;;6487955;31;8871;-54
2023/10/13 02:46:30;;;;;;;;;25.75;25.00;;;;;;;;6487561;31;8848;-56
2023/10/13 02:52:37;;;;;;;;;23.00;21.25;;;;;;;;6487005;39;8847;-54
2023/10/13 02:58:45;;;;;;;;;23.00;23.00;;;;;;;;6487967;39;8904;-56
2023/10/13 03:04:48;;;;;;;;;26.00;23.00;;;;;;;;6488329;39;9065;-54
2023/10/13 03:10:54;;;;;;;;;27.25;25.00;;;;;;;;6486920;39;9555;-56
2023/10/13 03:17:02;;;;;;;;;29.25;25.75;;;;;;;;6486355;39;9502;-55
2023/10/13 03:23:09;;;;;;;;;24.75;24.75;;;;;;;;6486594;39;8896;-55
2023/10/13 03:29:20;;;;;;;;;27.00;26.25;;;;;;;;6487605;39;8947;-54
2023/10/13 03:35:31;;;;;;;;;29.50;28.50;;;;;;;;6487384;39;9606;-56
2023/10/13 03:41:37;;;;;;;;;32.00;29.00;;;;;;;;6488366;31;8887;-55
2023/10/13 03:47:42;;;;;;;;;24.00;23.75;;;;;;;;6489709;39;8864;-56
2023/10/13 03:53:53;;;;;;;;;36.75;31.50;;;;;;;;6489718;39;8973;-55
2023/10/13 03:59:57;;;;;;;;;28.00;25.50;;;;;;;;6489427;46;8994;-55
2023/10/13 04:06:06;;;;;;;;;32.50;28.25;;;;;;;;6489267;46;8887;-55
2023/10/13 04:18:33;;;;;;;;;34.00;30.50;;;;;;;;6488827;39;8843;-55
2023/10/13 04:25:00;;;;;;;;;40.25;37.50;;;;;;;;6487507;46;8903;-55
2023/10/13 04:31:55;;;;;;;;;37.00;35.75;;;;;;;;6489153;46;8895;-55
2023/10/13 04:37:47;;;;;;;;;36.75;35.00;;;;;;;;6487858;31;9007;-55
2023/10/13 04:43:56;;;;;;;;;35.50;34.75;;;;;;;;6488467;46;8959;-57
2023/10/13 04:50:01;;;;;;;;;34.00;33.25;;;;;;;;6488782;39;9040;-54
